createdAt,value
2022-08-24T00:01:37.059Z,17.08
2022-08-24T00:04:00.788Z,17.07
2022-08-24T00:06:25.939Z,17.06
2022-08-24T00:08:52.498Z,17.07
2022-08-24T00:11:16.487Z,17.07
2022-08-24T00:13:40.807Z,17.05
2022-08-24T00:16:06.441Z,16.97
2022-08-24T00:18:30.368Z,16.97
2022-08-24T00:20:54.399Z,16.97
2022-08-24T00:23:18.471Z,16.96
2022-08-24T00:25:42.576Z,16.90
2022-08-24T00:28:06.831Z,16.90
2022-08-24T00:30:30.955Z,16.85
2022-08-24T00:32:56.488Z,16.84
2022-08-24T00:35:20.962Z,16.82
2022-08-24T00:37:44.641Z,16.85
2022-08-24T00:40:12.960Z,16.73
2022-08-24T00:42:36.827Z,16.78
2022-08-24T00:45:01.093Z,16.78
2022-08-24T00:47:29.043Z,16.74
2022-08-24T00:49:59.642Z,16.72
2022-08-24T00:52:27.983Z,16.68
2022-08-24T00:55:02.297Z,16.64
2022-08-24T00:57:34.655Z,16.59
2022-08-24T01:00:06.321Z,16.59
2022-08-24T01:02:34.628Z,16.60
2022-08-24T01:05:02.717Z,16.57
2022-08-24T01:07:29.434Z,16.54
2022-08-24T01:09:55.239Z,16.57
2022-08-24T01:12:19.186Z,16.52
2022-08-24T01:14:42.839Z,16.52
2022-08-24T01:17:24.908Z,16.53
2022-08-24T01:19:53.526Z,16.49
2022-08-24T01:22:43.579Z,16.56
2022-08-24T01:25:10.217Z,16.48
2022-08-24T01:27:35.660Z,16.48
2022-08-24T01:30:03.547Z,16.44
2022-08-24T01:32:29.026Z,16.38
2022-08-24T01:34:52.694Z,16.40
2022-08-24T01:37:16.599Z,16.37
2022-08-24T01:39:44.592Z,16.26
2022-08-24T01:42:10.879Z,16.28
2022-08-24T01:44:37.022Z,16.31
2022-08-24T01:47:01.642Z,16.27
2022-08-24T01:49:35.498Z,16.26
2022-08-24T01:51:59.679Z,16.25
2022-08-24T01:54:23.605Z,16.30
2022-08-24T01:56:47.817Z,16.20
2022-08-24T01:59:13.997Z,16.22
2022-08-24T02:01:46.775Z,16.20
2022-08-24T02:04:11.319Z,16.15
2022-08-24T02:06:44.622Z,16.12
2022-08-24T02:09:10.743Z,16.09
2022-08-24T02:11:35.840Z,16.10
2022-08-24T02:13:59.522Z,16.10
2022-08-24T02:16:27.610Z,16.05
2022-08-24T02:18:51.350Z,16.05
2022-08-24T02:21:16.885Z,16.09
2022-08-24T02:23:42.612Z,16.05
2022-08-24T02:26:08.591Z,16.00
2022-08-24T02:28:32.619Z,15.99
2022-08-24T02:30:56.766Z,16.08
2022-08-24T02:33:23.663Z,16.08
2022-08-24T02:35:48.303Z,16.07
2022-08-24T02:38:12.147Z,16.08
2022-08-24T02:40:36.162Z,16.14
2022-08-24T02:43:00.430Z,16.20
2022-08-24T02:45:24.192Z,16.22
2022-08-24T02:47:48.155Z,16.21
2022-08-24T02:50:18.291Z,16.23
2022-08-24T02:52:44.141Z,16.22
2022-08-24T02:55:11.173Z,16.20
2022-08-24T02:57:35.216Z,16.19
2022-08-24T03:00:05.928Z,16.13
2022-08-24T03:02:32.656Z,16.11
2022-08-24T03:04:56.387Z,16.09
2022-08-24T03:07:21.579Z,16.15
2022-08-24T03:09:45.544Z,16.11
2022-08-24T03:12:09.874Z,16.19
2022-08-24T03:14:35.375Z,16.08
2022-08-24T03:16:59.055Z,16.05
2022-08-24T03:19:23.855Z,16.03
2022-08-24T03:21:48.229Z,16.00
2022-08-24T03:24:13.682Z,15.97
2022-08-24T03:26:39.052Z,16.08
2022-08-24T03:29:09.093Z,16.02
2022-08-24T03:31:33.510Z,15.97
2022-08-24T03:33:57.436Z,15.96
2022-08-24T03:36:21.271Z,15.91
2022-08-24T03:38:45.019Z,15.95
2022-08-24T03:41:10.619Z,15.92
2022-08-24T03:43:49.766Z,15.91
2022-08-24T03:46:20.498Z,15.86
2022-08-24T03:48:44.983Z,15.84
2022-08-24T03:51:09.234Z,15.69
2022-08-24T03:53:33.206Z,15.77
2022-08-24T03:56:00.925Z,15.73
2022-08-24T03:58:31.363Z,15.73
2022-08-24T04:00:55.563Z,15.50
2022-08-24T04:03:19.772Z,15.20
2022-08-24T04:05:43.952Z,15.14
2022-08-24T04:08:08.435Z,15.12
2022-08-24T04:10:35.851Z,15.09
2022-08-24T04:13:01.589Z,15.34
2022-08-24T04:15:27.635Z,15.45
2022-08-24T04:17:52.687Z,15.44
2022-08-24T04:20:16.538Z,15.47
2022-08-24T04:22:40.324Z,15.49
2022-08-24T04:25:09.460Z,15.53
2022-08-24T04:27:35.116Z,15.56
2022-08-24T04:29:58.794Z,15.51
2022-08-24T04:32:26.119Z,15.52
2022-08-24T04:34:51.678Z,15.57
2022-08-24T04:37:15.955Z,15.57
2022-08-24T04:39:40.161Z,15.63
2022-08-24T04:42:26.987Z,15.55
2022-08-24T04:44:52.165Z,15.47
2022-08-24T04:47:18.951Z,15.65
2022-08-24T04:49:44.169Z,15.67
2022-08-24T04:52:08.264Z,15.78
2022-08-24T04:54:32.259Z,15.77
2022-08-24T04:57:06.443Z,15.86
2022-08-24T04:59:30.822Z,15.94
2022-08-24T05:01:54.653Z,16.05
2022-08-24T05:04:18.409Z,15.98
2022-08-24T05:06:43.773Z,16.05
2022-08-24T05:09:07.923Z,15.95
2022-08-24T05:11:31.780Z,16.11
2022-08-24T05:13:56.652Z,15.96
2022-08-24T05:16:21.679Z,16.21
2022-08-24T05:18:47.268Z,16.34
2022-08-24T05:21:15.963Z,16.34
2022-08-24T05:23:43.994Z,16.38
2022-08-24T05:26:13.279Z,16.35
2022-08-24T05:28:37.084Z,16.63
2022-08-24T05:31:09.295Z,16.69
2022-08-24T05:33:34.643Z,16.77
2022-08-24T05:35:58.448Z,16.89
2022-08-24T05:38:22.824Z,16.97
2022-08-24T05:40:47.891Z,17.01
2022-08-24T05:43:12.327Z,17.02
2022-08-24T05:45:35.946Z,16.94
2022-08-24T05:47:59.708Z,17.27
2022-08-24T05:50:57.198Z,17.27
2022-08-24T05:53:24.060Z,17.35
2022-08-24T05:55:49.341Z,17.40
2022-08-24T05:58:23.063Z,17.33
2022-08-24T06:00:59.295Z,17.70
2022-08-24T06:03:22.983Z,17.52
2022-08-24T06:05:49.289Z,17.67
2022-08-24T06:08:12.955Z,17.76
2022-08-24T06:10:43.060Z,17.95
2022-08-24T06:13:08.643Z,18.03
2022-08-24T06:15:33.038Z,18.27
2022-08-24T06:17:56.803Z,18.28
2022-08-24T06:20:20.726Z,18.35
2022-08-24T06:22:45.452Z,18.46
2022-08-24T06:25:27.647Z,18.54
2022-08-24T06:27:51.367Z,18.40
2022-08-24T06:30:16.965Z,18.57
2022-08-24T06:32:43.984Z,18.67
2022-08-24T06:35:14.368Z,18.84
2022-08-24T06:37:38.103Z,18.98
2022-08-24T06:40:03.205Z,19.15
2022-08-24T06:42:30.443Z,19.12
2022-08-24T06:44:56.710Z,19.00
2022-08-24T06:47:23.671Z,19.04
2022-08-24T06:49:52.964Z,19.14
2022-08-24T06:52:16.727Z,19.16
2022-08-24T06:54:40.523Z,19.16
2022-08-24T06:57:04.734Z,19.40
2022-08-24T06:59:29.180Z,19.28
2022-08-24T07:01:53.636Z,19.36
2022-08-24T07:04:19.059Z,19.28
2022-08-24T07:06:45.491Z,19.38
2022-08-24T07:09:10.835Z,19.62
2022-08-24T07:11:35.186Z,19.74
2022-08-24T07:13:59.130Z,19.66
2022-08-24T07:16:24.336Z,19.82
2022-08-24T07:18:53.143Z,19.59
2022-08-24T07:21:20.368Z,19.70
2022-08-24T07:23:44.821Z,19.91
2022-08-24T07:26:21.690Z,19.98
2022-08-24T07:28:48.328Z,20.08
2022-08-24T07:31:13.857Z,20.05
2022-08-24T07:33:45.400Z,20.14
2022-08-24T07:36:09.519Z,20.29
2022-08-24T07:38:34.894Z,20.22
2022-08-24T07:41:38.153Z,20.34
2022-08-24T07:43:44.185Z,20.49
2022-08-24T07:46:08.222Z,20.52
2022-08-24T07:48:33.708Z,20.51
2022-08-24T07:50:59.683Z,20.43
2022-08-24T07:53:27.945Z,20.50
2022-08-24T07:55:58.567Z,20.86
2022-08-24T07:58:22.463Z,20.89
2022-08-24T08:00:48.759Z,20.94
2022-08-24T08:03:12.423Z,21.24
2022-08-24T08:05:41.515Z,21.44
2022-08-24T08:08:05.758Z,21.44
2022-08-24T08:10:31.194Z,21.56
2022-08-24T08:12:56.476Z,21.61
2022-08-24T08:15:20.443Z,21.53
2022-08-24T08:17:54.083Z,21.47
2022-08-24T08:20:20.234Z,21.75
2022-08-24T08:23:01.166Z,22.02
2022-08-24T08:25:27.649Z,21.73
2022-08-24T08:27:51.436Z,21.95
2022-08-24T08:30:17.039Z,22.12
2022-08-24T08:32:41.216Z,22.24
2022-08-24T08:35:05.818Z,21.93
2022-08-24T08:37:32.640Z,22.25
2022-08-24T08:39:56.676Z,22.25
2022-08-24T08:42:51.962Z,22.54
2022-08-24T08:45:36.589Z,22.56
2022-08-24T08:49:04.908Z,22.94
2022-08-24T08:52:13.669Z,22.81
2022-08-24T08:54:54.607Z,22.71
2022-08-24T08:57:35.448Z,22.91
2022-08-24T09:00:15.896Z,23.08
2022-08-24T09:03:34.352Z,22.91
2022-08-24T09:06:36.677Z,23.04
2022-08-24T09:09:27.682Z,23.20
2022-08-24T09:12:05.410Z,23.36
2022-08-24T09:14:53.249Z,23.46
2022-08-24T09:17:35.168Z,23.38
2022-08-24T09:20:21.007Z,23.46
2022-08-24T09:22:48.468Z,23.50
2022-08-24T09:25:26.387Z,23.55
2022-08-24T09:28:18.376Z,23.78
2022-08-24T09:31:03.822Z,23.52
2022-08-24T09:33:32.939Z,23.51
2022-08-24T09:36:10.874Z,24.08
2022-08-24T09:39:00.037Z,23.90
2022-08-24T09:42:24.536Z,24.04
2022-08-24T09:45:21.876Z,23.92
2022-08-24T09:48:17.854Z,24.07
2022-08-24T09:51:30.972Z,24.21
2022-08-24T09:54:36.855Z,24.45
2022-08-24T09:57:50.325Z,24.46
2022-08-24T10:00:19.887Z,24.20
2022-08-24T10:03:01.347Z,24.37
2022-08-24T10:05:41.360Z,24.59
2022-08-24T10:08:20.005Z,24.55
2022-08-24T10:10:53.033Z,24.54
2022-08-24T10:13:27.780Z,24.90
2022-08-24T10:16:22.708Z,24.55
2022-08-24T10:19:01.324Z,24.62
2022-08-24T10:21:42.351Z,24.37
2022-08-24T10:24:37.295Z,24.32
2022-08-24T10:27:21.627Z,24.30
2022-08-24T10:30:15.926Z,24.25
2022-08-24T10:33:04.895Z,24.89
2022-08-24T10:35:37.025Z,25.04
2022-08-24T10:38:46.924Z,25.20
2022-08-24T10:42:37.376Z,24.50
2022-08-24T10:45:28.785Z,24.92
2022-08-24T10:48:16.433Z,25.13
2022-08-24T10:50:55.381Z,25.30
2022-08-24T10:53:26.537Z,24.75
2022-08-24T10:56:05.587Z,25.41
2022-08-24T10:59:04.445Z,25.37
2022-08-24T11:01:33.771Z,25.38
2022-08-24T11:04:04.487Z,25.63
2022-08-24T11:06:32.745Z,25.54
2022-08-24T11:09:02.594Z,25.86
2022-08-24T11:11:32.979Z,26.40
2022-08-24T11:14:01.776Z,26.52
2022-08-24T11:16:30.483Z,26.91
2022-08-24T11:18:56.979Z,26.60
2022-08-24T11:21:48.514Z,26.71
2022-08-24T11:24:28.602Z,27.44
2022-08-24T11:26:58.556Z,27.53
2022-08-24T11:29:30.668Z,27.72
2022-08-24T11:31:54.820Z,27.65
2022-08-24T11:34:31.803Z,27.91
2022-08-24T11:36:55.577Z,26.54
2022-08-24T11:39:24.016Z,26.12
2022-08-24T11:41:57.755Z,27.27
2022-08-24T11:44:41.171Z,27.45
2022-08-24T11:47:19.718Z,27.98
2022-08-24T11:49:53.698Z,28.20
2022-08-24T11:52:34.990Z,28.07
2022-08-24T11:55:06.456Z,26.74
2022-08-24T11:57:39.612Z,26.81
2022-08-24T12:00:18.533Z,28.12
2022-08-24T12:02:51.911Z,28.36
2022-08-24T12:05:30.663Z,27.83
2022-08-24T12:08:09.850Z,27.37
2022-08-24T12:10:45.405Z,27.95
2022-08-24T12:13:23.762Z,28.40
2022-08-24T12:15:56.946Z,28.86
2022-08-24T12:18:30.217Z,28.87
2022-08-24T12:20:55.730Z,28.15
2022-08-24T12:23:28.654Z,28.90
2022-08-24T12:26:04.724Z,28.80
2022-08-24T12:28:35.644Z,28.26
2022-08-24T12:31:14.191Z,28.77
2022-08-24T12:33:41.280Z,29.51
2022-08-24T12:36:14.938Z,29.44
2022-08-24T12:38:45.135Z,29.59
2022-08-24T12:41:18.992Z,30.12
2022-08-24T12:43:49.388Z,29.42
2022-08-24T12:46:17.384Z,30.01
2022-08-24T12:48:48.903Z,30.27
2022-08-24T12:51:22.833Z,30.44
2022-08-24T12:54:02.781Z,29.86
2022-08-24T12:57:04.812Z,30.63
2022-08-24T12:59:32.101Z,30.79
2022-08-24T13:02:04.970Z,30.51
2022-08-24T13:04:55.313Z,29.53
2022-08-24T13:07:31.636Z,30.12
2022-08-24T13:10:13.722Z,30.60
2022-08-24T13:13:20.083Z,29.58
2022-08-24T13:16:03.397Z,30.11
2022-08-24T13:19:11.187Z,30.69
2022-08-24T13:21:58.710Z,29.88
2022-08-24T13:24:57.680Z,30.16
2022-08-24T13:28:03.966Z,30.16
2022-08-24T13:30:39.291Z,31.04
2022-08-24T13:33:11.666Z,29.94
2022-08-24T13:36:04.064Z,30.32
2022-08-24T13:38:55.360Z,30.73
2022-08-24T13:41:37.603Z,30.66
2022-08-24T13:44:08.753Z,31.09
2022-08-24T13:46:53.849Z,30.75
2022-08-24T13:49:40.916Z,30.81
2022-08-24T13:52:22.745Z,30.66
2022-08-24T13:55:11.197Z,30.47
2022-08-24T13:57:41.750Z,29.05
2022-08-24T14:00:33.933Z,29.33
2022-08-24T14:03:14.313Z,30.09
2022-08-24T14:05:48.644Z,29.62
2022-08-24T14:08:35.130Z,30.58
2022-08-24T14:11:09.784Z,30.75
2022-08-24T14:13:59.467Z,30.20
2022-08-24T14:16:57.111Z,30.43
2022-08-24T14:19:29.860Z,30.38
2022-08-24T14:22:01.453Z,29.96
2022-08-24T14:24:36.403Z,30.11
2022-08-24T14:27:13.459Z,29.84
2022-08-24T14:29:47.412Z,29.72
2022-08-24T14:33:03.504Z,30.31
2022-08-24T14:35:36.199Z,29.63
2022-08-24T14:38:55.942Z,29.43
2022-08-24T14:41:41.831Z,29.68
2022-08-24T14:44:36.980Z,29.31
2022-08-24T14:47:09.296Z,29.84
2022-08-24T14:49:41.929Z,29.41
2022-08-24T14:52:22.126Z,29.67
2022-08-24T14:55:05.843Z,29.27
2022-08-24T14:57:49.030Z,29.85
2022-08-24T15:00:17.438Z,29.79
2022-08-24T15:03:25.894Z,27.99
2022-08-24T15:06:26.346Z,28.87
2022-08-24T15:08:52.526Z,27.81
2022-08-24T15:11:19.343Z,28.49
2022-08-24T15:13:50.939Z,28.07
2022-08-24T15:16:18.875Z,28.22
2022-08-24T15:18:50.840Z,28.42
2022-08-24T15:21:30.379Z,28.53
2022-08-24T15:24:16.771Z,27.99
2022-08-24T15:26:56.753Z,28.21
2022-08-24T15:29:26.227Z,27.78
2022-08-24T15:32:00.702Z,27.92
2022-08-24T15:34:37.395Z,27.69
2022-08-24T15:37:01.928Z,27.78
2022-08-24T15:39:29.395Z,28.07
2022-08-24T15:41:53.168Z,27.75
2022-08-24T15:44:24.501Z,27.87
2022-08-24T15:46:51.479Z,27.20
2022-08-24T15:49:20.290Z,27.66
2022-08-24T15:51:53.330Z,27.45
2022-08-24T15:54:31.075Z,27.48
2022-08-24T15:56:59.639Z,27.32
2022-08-24T15:59:29.744Z,27.04
2022-08-24T16:02:28.732Z,27.11
2022-08-24T16:05:00.817Z,26.96
2022-08-24T16:07:29.315Z,27.10
2022-08-24T16:10:07.571Z,27.36
2022-08-24T16:12:32.714Z,26.93
2022-08-24T16:15:14.349Z,27.08
2022-08-24T16:17:42.575Z,26.94
2022-08-24T16:20:10.098Z,27.08
2022-08-24T16:22:39.470Z,27.27
2022-08-24T16:25:24.296Z,27.35
2022-08-24T16:28:01.736Z,26.86
2022-08-24T16:30:30.089Z,26.74
2022-08-24T16:32:57.500Z,26.98
2022-08-24T16:35:23.980Z,26.90
2022-08-24T16:37:47.646Z,26.78
2022-08-24T16:40:12.546Z,27.01
2022-08-24T16:42:37.850Z,26.64
2022-08-24T16:45:01.989Z,26.57
2022-08-24T16:47:29.412Z,26.60
2022-08-24T16:49:53.276Z,26.81
2022-08-24T16:52:17.668Z,26.63
2022-08-24T16:54:42.039Z,26.50
2022-08-24T16:57:14.071Z,26.55
2022-08-24T16:59:38.101Z,26.49
2022-08-24T17:02:02.163Z,26.40
2022-08-24T17:04:28.008Z,26.39
2022-08-24T17:06:54.551Z,26.49
2022-08-24T17:09:19.228Z,26.55
2022-08-24T17:11:43.005Z,26.52
2022-08-24T17:14:07.111Z,26.51
2022-08-24T17:16:31.009Z,26.44
2022-08-24T17:18:54.974Z,26.29
2022-08-24T17:21:20.415Z,26.00
2022-08-24T17:23:46.738Z,26.22
2022-08-24T17:26:20.722Z,26.17
2022-08-24T17:28:47.412Z,26.24
2022-08-24T17:31:11.619Z,25.79
2022-08-24T17:33:35.845Z,25.66
2022-08-24T17:36:00.252Z,25.52
2022-08-24T17:38:26.498Z,25.41
2022-08-24T17:40:51.751Z,25.67
2022-08-24T17:43:16.118Z,25.13
2022-08-24T17:45:39.925Z,25.23
2022-08-24T17:48:04.556Z,25.20
2022-08-24T17:50:28.614Z,25.24
2022-08-24T17:52:58.897Z,25.11
2022-08-24T17:55:25.518Z,25.06
2022-08-24T17:57:49.212Z,25.01
2022-08-24T18:00:15.608Z,25.00
2022-08-24T18:02:41.247Z,25.11
2022-08-24T18:05:08.465Z,25.01
2022-08-24T18:07:51.990Z,25.08
2022-08-24T18:10:22.143Z,25.06
2022-08-24T18:12:47.213Z,24.84
2022-08-24T18:15:11.803Z,24.91
2022-08-24T18:17:40.231Z,24.96
2022-08-24T18:20:05.111Z,24.90
2022-08-24T18:22:29.504Z,24.71
2022-08-24T18:24:53.131Z,24.75
2022-08-24T18:27:20.418Z,24.58
2022-08-24T18:29:54.818Z,24.66
2022-08-24T18:32:21.022Z,24.33
2022-08-24T18:34:44.856Z,24.34
2022-08-24T18:37:09.150Z,24.30
2022-08-24T18:39:32.819Z,24.09
2022-08-24T18:41:59.653Z,24.29
2022-08-24T18:44:29.559Z,24.29
2022-08-24T18:46:56.664Z,24.26
2022-08-24T18:49:22.369Z,24.02
2022-08-24T18:51:48.353Z,24.01
2022-08-24T18:54:16.405Z,23.94
2022-08-24T18:56:40.350Z,23.93
2022-08-24T18:59:04.722Z,23.89
2022-08-24T19:01:29.641Z,23.70
2022-08-24T19:03:55.663Z,23.72
2022-08-24T19:06:19.837Z,23.74
2022-08-24T19:08:43.486Z,23.68
2022-08-24T19:11:08.506Z,23.58
2022-08-24T19:13:33.275Z,23.57
2022-08-24T19:15:58.172Z,23.54
2022-08-24T19:18:23.978Z,23.49
2022-08-24T19:20:52.324Z,23.24
2022-08-24T19:23:21.283Z,23.26
2022-08-24T19:25:47.054Z,23.38
2022-08-24T19:28:11.565Z,23.24
2022-08-24T19:30:35.627Z,23.03
2022-08-24T19:33:00.221Z,23.00
2022-08-24T19:35:24.407Z,23.10
2022-08-24T19:37:49.579Z,23.10
2022-08-24T19:40:13.986Z,23.03
2022-08-24T19:42:37.781Z,22.90
2022-08-24T19:45:21.108Z,22.92
2022-08-24T19:47:44.889Z,22.85
2022-08-24T19:50:10.635Z,22.63
2022-08-24T19:52:35.528Z,22.70
2022-08-24T19:55:00.671Z,22.54
2022-08-24T19:57:37.948Z,22.54
2022-08-24T20:00:21.424Z,22.48
2022-08-24T20:02:45.662Z,22.45
2022-08-24T20:05:09.988Z,22.37
2022-08-24T20:07:33.713Z,22.44
2022-08-24T20:09:57.495Z,22.43
2022-08-24T20:12:24.306Z,22.47
2022-08-24T20:14:48.135Z,22.24
2022-08-24T20:17:11.883Z,22.30
2022-08-24T20:19:39.560Z,22.40
2022-08-24T20:22:13.175Z,22.24
2022-08-24T20:24:37.444Z,22.14
2022-08-24T20:27:01.365Z,22.22
2022-08-24T20:29:27.461Z,22.30
2022-08-24T20:31:52.547Z,22.14
2022-08-24T20:34:16.483Z,22.14
2022-08-24T20:36:44.911Z,22.12
2022-08-24T20:39:13.183Z,22.08
2022-08-24T20:41:37.302Z,21.96
2022-08-24T20:44:01.620Z,22.17
2022-08-24T20:46:27.507Z,22.19
2022-08-24T20:48:55.404Z,22.07
2022-08-24T20:51:19.567Z,22.14
2022-08-24T20:53:43.311Z,21.95
2022-08-24T20:56:12.670Z,21.92
2022-08-24T20:58:36.445Z,21.86
2022-08-24T21:01:00.092Z,21.81
2022-08-24T21:03:25.295Z,21.94
2022-08-24T21:05:52.427Z,21.67
2022-08-24T21:08:16.321Z,21.65
2022-08-24T21:10:42.242Z,21.74
2022-08-24T21:13:06.586Z,21.72
2022-08-24T21:15:30.344Z,21.84
2022-08-24T21:17:54.159Z,21.81
2022-08-24T21:20:20.352Z,21.79
2022-08-24T21:22:46.216Z,21.71
2022-08-24T21:25:11.563Z,21.62
2022-08-24T21:27:38.491Z,21.59
2022-08-24T21:30:02.416Z,21.56
2022-08-24T21:32:43.751Z,21.59
2022-08-24T21:35:08.946Z,21.58
2022-08-24T21:37:37.551Z,21.45
2022-08-24T21:40:01.277Z,21.46
2022-08-24T21:42:24.944Z,21.31
2022-08-24T21:44:49.134Z,21.33
2022-08-24T21:47:12.835Z,21.29
2022-08-24T21:49:36.796Z,21.21
2022-08-24T21:52:00.412Z,21.21
2022-08-24T21:54:26.405Z,21.12
2022-08-24T21:56:50.523Z,21.15
2022-08-24T21:59:14.623Z,21.13
2022-08-24T22:01:38.829Z,21.12
2022-08-24T22:04:02.715Z,21.22
2022-08-24T22:06:30.993Z,21.15
2022-08-24T22:08:55.109Z,21.03
2022-08-24T22:11:24.671Z,21.07
2022-08-24T22:13:49.011Z,20.92
2022-08-24T22:16:13.460Z,21.02
2022-08-24T22:18:37.290Z,20.99
2022-08-24T22:21:01.791Z,20.82
2022-08-24T22:23:25.503Z,20.92
2022-08-24T22:25:52.017Z,20.96
2022-08-24T22:28:17.168Z,20.87
2022-08-24T22:30:40.856Z,20.97
2022-08-24T22:33:05.182Z,21.00
2022-08-24T22:35:29.131Z,20.85
2022-08-24T22:37:58.188Z,20.88
2022-08-24T22:40:22.152Z,20.86
2022-08-24T22:42:45.905Z,20.82
2022-08-24T22:45:12.235Z,20.84
2022-08-24T22:47:36.063Z,20.76
2022-08-24T22:49:59.739Z,20.62
2022-08-24T22:52:23.534Z,20.60
2022-08-24T22:54:47.316Z,20.76
2022-08-24T22:57:11.310Z,20.73
2022-08-24T22:59:38.731Z,20.69
2022-08-24T23:02:06.618Z,20.71
2022-08-24T23:04:34.714Z,20.58
2022-08-24T23:06:58.395Z,20.64
2022-08-24T23:09:23.342Z,20.66
2022-08-24T23:11:47.506Z,20.69
2022-08-24T23:14:13.744Z,20.56
2022-08-24T23:16:41.113Z,20.63
2022-08-24T23:19:25.388Z,20.64
2022-08-24T23:21:49.238Z,20.37
2022-08-24T23:24:15.320Z,20.50
2022-08-24T23:26:40.291Z,20.46
2022-08-24T23:29:04.699Z,20.48
2022-08-24T23:31:29.038Z,20.53
2022-08-24T23:33:53.729Z,20.29
2022-08-24T23:36:23.597Z,20.38
2022-08-24T23:38:47.260Z,20.35
2022-08-24T23:41:13.931Z,20.34
2022-08-24T23:43:38.523Z,20.16
2022-08-24T23:46:02.347Z,20.25
2022-08-24T23:48:26.081Z,20.24
2022-08-24T23:50:49.904Z,20.23
2022-08-24T23:53:15.455Z,20.18
2022-08-24T23:55:39.222Z,20.15
2022-08-24T23:58:03.759Z,20.11
